Terminal Aerodrome Forecast
Issued by NWS

Home | Current Version | Previous Version | Text Only | Print | Product List | Glossary On
Versions: 1 2 3 4 5 6 7 8 9 10 11 12 13 14 15
000
FTUS46 KMTR 221100
TAFSNS
TAF
KSNS 221120Z 2212/2312 VRB03KT P6SM OVC011
     FM221800 28005KT P6SM SCT015
     FM222000 28010KT P6SM SKC
     FM230300 28006KT P6SM SCT008
     FM230400 23003KT P6SM OVC008=

USA.gov is the U.S. government's official web portal to all federal, state and local government web resources and services.